In Rescue
 
Open Full Screen Window  High Contrast Mode
Wind Gusting 00 knots
08
March 19, 2019 6:16 PM CDT
Weather Information
Wind Direction
  230 °
Wind Speed
  08 kt (9 mph)
Wind Gust
  00 kt (0 mph)
Altimeter
30.15 in
Visibility
10 SM
Temperature
06° C
43° F
Dewpoint
02° C
36° F
Humidity
76%
1hr Rain Fall
00.00 in.
24hr Rain Fall
00.00 in.
Sky Condition
Clear
VFR

METAR KSYN 192316Z AUTO 23008KT 10SM CLR 06/02 A3015 RMK AO2 T00600015

FAA Disclaimer: The data displayed is for advisory purposes only and is not to be used for flight planning or operations.